createdAt,value
2023-03-21T00:01:53.753Z,35.85
2023-03-21T00:04:29.590Z,37.90
2023-03-21T00:06:58.717Z,34.88
2023-03-21T00:09:26.133Z,35.85
2023-03-21T00:11:53.410Z,38.28
2023-03-21T00:14:20.820Z,38.78
2023-03-21T00:16:52.995Z,36.72
2023-03-21T00:19:21.123Z,37.58
2023-03-21T00:22:08.712Z,38.75
2023-03-21T00:24:37.081Z,38.80
2023-03-21T00:29:52.471Z,37.83
2023-03-21T00:32:21.700Z,38.55
2023-03-21T00:35:34.796Z,38.78
2023-03-21T00:37:37.840Z,38.17
2023-03-21T00:40:26.542Z,41.00
2023-03-21T00:42:58.357Z,38.45
2023-03-21T00:45:27.251Z,39.80
2023-03-21T00:47:54.572Z,39.45
2023-03-21T00:50:21.849Z,40.08
2023-03-21T00:52:49.221Z,39.47
2023-03-21T00:55:19.223Z,39.65
2023-03-21T00:57:56.134Z,41.35
2023-03-21T01:00:27.634Z,39.92
2023-03-21T01:03:08.529Z,38.47
2023-03-21T01:06:03.545Z,37.88
2023-03-21T01:08:48.541Z,40.08
2023-03-21T01:11:23.472Z,37.63
2023-03-21T01:13:56.152Z,40.20
2023-03-21T01:16:27.375Z,40.50
2023-03-21T01:18:54.755Z,38.33
2023-03-21T01:21:22.235Z,38.70
2023-03-21T01:23:49.656Z,39.22
2023-03-21T01:26:18.590Z,36.53
2023-03-21T01:28:46.729Z,38.47
2023-03-21T01:31:16.366Z,39.10
2023-03-21T01:33:44.529Z,38.72
2023-03-21T01:36:23.555Z,38.42
2023-03-21T01:38:53.837Z,37.67
2023-03-21T01:41:44.110Z,36.95
2023-03-21T01:44:30.822Z,36.88
2023-03-21T01:47:10.533Z,39.05
2023-03-21T01:49:51.001Z,36.45
2023-03-21T01:52:39.037Z,40.00
2023-03-21T01:55:13.327Z,38.05
2023-03-21T01:58:04.909Z,36.67
2023-03-21T02:00:41.489Z,37.83
2023-03-21T02:03:35.262Z,39.03
2023-03-21T02:06:21.810Z,38.88
2023-03-21T02:08:54.646Z,39.35
2023-03-21T02:11:23.757Z,36.97
2023-03-21T02:13:55.863Z,38.00
2023-03-21T02:16:53.652Z,39.60
2023-03-21T02:19:32.810Z,38.63
2023-03-21T02:22:25.897Z,39.45
2023-03-21T02:25:21.857Z,39.20
2023-03-21T02:28:18.397Z,40.05
2023-03-21T02:31:06.686Z,38.33
2023-03-21T02:33:46.488Z,39.33
2023-03-21T02:36:28.062Z,36.47
2023-03-21T02:39:48.567Z,38.20
2023-03-21T02:42:21.856Z,37.05
2023-03-21T02:45:17.505Z,36.42
2023-03-21T02:48:05.169Z,35.75
2023-03-21T02:50:46.381Z,35.83
2023-03-21T02:53:19.429Z,36.53
2023-03-21T02:55:48.114Z,36.13
2023-03-21T02:58:19.798Z,36.58
2023-03-21T03:00:55.401Z,37.72
2023-03-21T03:03:39.523Z,37.25
2023-03-21T03:06:18.967Z,37.85
2023-03-21T03:09:02.923Z,36.00
2023-03-21T03:11:33.719Z,38.90
2023-03-21T03:14:56.469Z,38.50
2023-03-21T03:17:28.518Z,39.15
2023-03-21T03:23:05.680Z,37.20
2023-03-21T03:26:01.538Z,39.22
2023-03-21T03:28:35.369Z,37.85
2023-03-21T03:31:09.494Z,37.20
2023-03-21T03:33:52.240Z,37.92
2023-03-21T03:36:31.540Z,37.70
2023-03-21T03:39:08.974Z,37.13
2023-03-21T03:42:08.015Z,35.60
2023-03-21T03:44:40.784Z,36.42
2023-03-21T03:47:22.917Z,37.58
2023-03-21T03:50:19.004Z,37.92
2023-03-21T03:52:57.334Z,37.80
2023-03-21T03:55:34.318Z,36.88
2023-03-21T03:58:19.655Z,37.15
2023-03-21T04:00:49.666Z,36.28
2023-03-21T04:03:16.980Z,35.35
2023-03-21T04:05:47.352Z,35.88
2023-03-21T04:08:17.359Z,35.75
2023-03-21T04:10:52.066Z,35.70
2023-03-21T04:13:20.226Z,36.42
2023-03-21T04:16:04.804Z,35.50
2023-03-21T04:18:32.382Z,35.70
2023-03-21T04:20:59.841Z,36.35
2023-03-21T04:23:29.969Z,34.70
2023-03-21T04:25:59.512Z,35.33
2023-03-21T04:28:36.308Z,35.67
2023-03-21T04:31:26.419Z,37.65
2023-03-21T04:34:09.830Z,36.35
2023-03-21T04:36:39.490Z,36.67
2023-03-21T04:39:12.613Z,37.08
2023-03-21T04:41:42.457Z,36.28
2023-03-21T04:44:11.760Z,36.58
2023-03-21T04:46:40.070Z,36.55
2023-03-21T04:49:08.416Z,36.83
2023-03-21T04:51:37.022Z,36.15
2023-03-21T04:56:36.284Z,34.55
2023-03-21T04:59:11.323Z,34.15
2023-03-21T05:01:41.131Z,32.53
2023-03-21T05:04:08.491Z,33.13
2023-03-21T05:06:36.674Z,32.20
2023-03-21T05:09:07.025Z,31.48
2023-03-21T05:11:37.824Z,31.10
2023-03-21T05:14:07.618Z,30.85
2023-03-21T05:16:36.458Z,32.97
2023-03-21T05:19:05.191Z,32.75
2023-03-21T05:21:41.740Z,30.02
2023-03-21T05:24:15.885Z,29.58
2023-03-21T05:26:44.450Z,29.90
2023-03-21T05:29:16.892Z,28.08
2023-03-21T05:31:46.401Z,31.13
2023-03-21T05:34:16.037Z,31.15
2023-03-21T05:36:43.886Z,31.40
2023-03-21T05:39:12.068Z,31.17
2023-03-21T05:41:45.267Z,30.45
2023-03-21T05:44:12.572Z,28.67
2023-03-21T05:46:40.524Z,30.42
2023-03-21T05:49:07.851Z,29.33
2023-03-21T05:51:35.697Z,28.45
2023-03-21T05:54:03.014Z,29.52
2023-03-21T05:56:30.556Z,29.60
2023-03-21T05:59:02.928Z,29.02
2023-03-21T06:01:33.502Z,29.60
2023-03-21T06:04:12.032Z,29.00
2023-03-21T06:06:40.674Z,30.30
2023-03-21T06:09:09.082Z,29.63
2023-03-21T06:11:38.812Z,28.48
2023-03-21T06:14:32.249Z,27.60
2023-03-21T06:17:19.739Z,28.33
2023-03-21T06:19:51.936Z,30.27
2023-03-21T06:22:35.436Z,28.98
2023-03-21T06:25:05.073Z,28.73
2023-03-21T06:27:32.852Z,28.17
2023-03-21T06:30:00.565Z,27.80
2023-03-21T06:32:32.762Z,28.33
2023-03-21T06:35:08.597Z,27.00
2023-03-21T06:37:36.570Z,26.90
2023-03-21T06:40:05.987Z,26.88
2023-03-21T06:42:33.237Z,26.92
2023-03-21T06:45:08.240Z,28.90
2023-03-21T06:47:35.639Z,29.25
2023-03-21T06:50:07.070Z,28.25
2023-03-21T06:52:40.354Z,27.55
2023-03-21T06:55:08.807Z,28.50
2023-03-21T06:57:36.399Z,28.30
2023-03-21T07:00:05.529Z,29.00
2023-03-21T07:02:33.713Z,28.88
2023-03-21T07:05:06.934Z,29.50
2023-03-21T07:07:34.263Z,30.75
2023-03-21T07:10:02.671Z,30.95
2023-03-21T07:12:35.862Z,28.77
2023-03-21T07:15:17.514Z,29.50
2023-03-21T07:20:14.244Z,29.92
2023-03-21T07:22:42.657Z,30.80
2023-03-21T07:25:11.126Z,29.33
2023-03-21T07:27:42.250Z,29.70
2023-03-21T07:30:11.144Z,30.50
2023-03-21T07:32:38.997Z,31.10
2023-03-21T07:35:08.450Z,29.85
2023-03-21T07:37:37.941Z,31.40
2023-03-21T07:40:10.537Z,32.30
2023-03-21T07:42:40.712Z,30.63
2023-03-21T07:45:10.126Z,31.13
2023-03-21T07:47:38.207Z,31.60
2023-03-21T07:50:06.256Z,30.30
2023-03-21T07:52:33.518Z,29.40
2023-03-21T07:55:00.881Z,28.27
2023-03-21T07:57:28.347Z,29.75
2023-03-21T07:59:55.625Z,27.25
2023-03-21T08:02:23.056Z,28.83
2023-03-21T08:04:50.605Z,27.15
2023-03-21T08:07:17.933Z,26.45
2023-03-21T08:09:45.236Z,27.85
2023-03-21T08:12:12.619Z,24.48
2023-03-21T08:14:39.938Z,26.95
2023-03-21T08:17:10.787Z,27.17
2023-03-21T08:19:38.183Z,29.07
2023-03-21T08:22:06.741Z,29.40
2023-03-21T08:24:34.242Z,25.55
2023-03-21T08:27:02.276Z,29.10
2023-03-21T08:29:29.608Z,29.02
2023-03-21T08:31:58.189Z,30.17
2023-03-21T08:34:26.415Z,31.73
2023-03-21T08:36:54.536Z,30.73
2023-03-21T08:39:24.225Z,31.48
2023-03-21T08:41:51.499Z,31.33
2023-03-21T08:44:18.724Z,30.67
2023-03-21T08:46:46.003Z,29.33
2023-03-21T08:49:13.251Z,31.40
2023-03-21T08:51:41.208Z,31.92
2023-03-21T08:54:16.714Z,27.63
2023-03-21T08:56:44.035Z,28.88
2023-03-21T08:59:11.270Z,29.10
2023-03-21T09:01:38.561Z,30.60
2023-03-21T09:04:07.921Z,30.38
2023-03-21T09:06:35.916Z,29.60
2023-03-21T09:09:05.983Z,30.92
2023-03-21T09:11:33.822Z,24.65
2023-03-21T09:14:01.981Z,31.83
2023-03-21T09:16:29.318Z,30.75
2023-03-21T09:18:59.120Z,31.92
2023-03-21T09:21:28.262Z,25.85
2023-03-21T09:23:58.747Z,29.70
2023-03-21T09:26:27.905Z,29.33
2023-03-21T09:28:56.281Z,30.55
2023-03-21T09:31:23.677Z,31.58
2023-03-21T09:33:55.901Z,28.95
2023-03-21T09:36:25.069Z,27.83
2023-03-21T09:38:53.097Z,27.83
2023-03-21T09:41:41.608Z,25.23
2023-03-21T09:44:37.978Z,26.58
2023-03-21T09:47:14.033Z,23.98
2023-03-21T09:49:49.251Z,28.42
2023-03-21T09:52:26.193Z,29.83
2023-03-21T09:54:55.653Z,27.20
2023-03-21T09:57:30.272Z,26.95
2023-03-21T10:00:07.841Z,23.85
2023-03-21T10:02:50.014Z,26.60
2023-03-21T10:05:26.440Z,23.23
2023-03-21T10:07:56.016Z,26.83
2023-03-21T10:10:28.954Z,24.42
2023-03-21T10:12:57.063Z,26.02
2023-03-21T10:15:27.431Z,23.85
2023-03-21T10:18:07.538Z,25.35
2023-03-21T10:20:41.534Z,24.80
2023-03-21T10:23:14.142Z,22.98
2023-03-21T10:25:46.489Z,22.80
2023-03-21T10:28:24.096Z,22.92
2023-03-21T10:30:54.195Z,23.08
2023-03-21T10:33:25.608Z,20.27
2023-03-21T10:35:59.740Z,21.73
2023-03-21T10:38:27.595Z,20.60
2023-03-21T10:40:56.251Z,23.02
2023-03-21T10:43:26.287Z,21.50
2023-03-21T10:45:55.450Z,22.17
2023-03-21T10:48:24.196Z,17.88
2023-03-21T10:50:55.741Z,19.02
2023-03-21T10:53:57.541Z,20.15
2023-03-21T10:56:31.135Z,20.40
2023-03-21T10:59:00.604Z,16.25
2023-03-21T11:01:41.221Z,19.08
2023-03-21T11:04:17.551Z,19.13
2023-03-21T11:06:51.436Z,19.85
2023-03-21T11:09:21.828Z,19.67
2023-03-21T11:12:11.031Z,17.92
2023-03-21T11:14:38.282Z,18.33
2023-03-21T11:17:17.888Z,16.10
2023-03-21T11:20:05.489Z,17.90
2023-03-21T11:22:43.999Z,16.83
2023-03-21T11:25:27.417Z,9.20
2023-03-21T11:27:56.233Z,16.20
2023-03-21T11:30:26.505Z,16.25
2023-03-21T11:33:01.866Z,13.70
2023-03-21T11:35:35.693Z,10.93
2023-03-21T11:38:03.629Z,11.90
2023-03-21T11:40:36.825Z,10.63
2023-03-21T11:43:32.003Z,10.75
2023-03-21T11:46:01.189Z,12.52
2023-03-21T11:48:29.003Z,12.63
2023-03-21T11:51:03.325Z,12.27
2023-03-21T11:53:45.409Z,11.90
2023-03-21T11:56:41.985Z,10.48
2023-03-21T11:59:24.507Z,12.48
2023-03-21T12:01:54.784Z,13.30
2023-03-21T12:04:34.055Z,13.50
2023-03-21T12:07:33.744Z,14.27
2023-03-21T12:10:10.245Z,13.57
2023-03-21T12:12:39.357Z,11.88
2023-03-21T12:15:37.250Z,12.35
2023-03-21T12:18:26.351Z,13.02
2023-03-21T12:20:55.977Z,10.45
2023-03-21T12:24:00.984Z,10.38
2023-03-21T12:26:57.497Z,8.07
2023-03-21T12:29:32.671Z,14.32
2023-03-21T12:32:14.661Z,13.30
2023-03-21T12:35:09.310Z,13.88
2023-03-21T12:38:09.487Z,20.80
2023-03-21T12:40:55.748Z,21.65
2023-03-21T12:43:42.058Z,20.98
2023-03-21T12:46:22.820Z,19.30
2023-03-21T12:49:02.912Z,18.67
2023-03-21T12:51:34.809Z,12.02
2023-03-21T12:54:17.848Z,20.23
2023-03-21T12:56:54.476Z,20.08
2023-03-21T12:59:34.854Z,15.25
2023-03-21T13:02:17.647Z,19.00
2023-03-21T13:05:04.535Z,20.17
2023-03-21T13:07:37.537Z,18.42
2023-03-21T13:10:17.247Z,17.88
2023-03-21T13:12:55.676Z,18.20
2023-03-21T13:15:48.156Z,18.42
2023-03-21T13:18:19.957Z,15.70
2023-03-21T13:20:55.858Z,21.30
2023-03-21T13:23:25.592Z,17.52
2023-03-21T13:25:57.229Z,21.23
2023-03-21T13:28:35.771Z,11.30
2023-03-21T13:31:22.361Z,19.65
2023-03-21T13:33:52.289Z,15.05
2023-03-21T13:36:28.814Z,15.02
2023-03-21T13:39:07.446Z,16.83
2023-03-21T13:41:38.994Z,17.70
2023-03-21T13:44:23.488Z,19.42
2023-03-21T13:47:03.589Z,18.00
2023-03-21T13:49:33.631Z,13.02
2023-03-21T13:52:22.396Z,10.07
2023-03-21T13:54:56.013Z,20.85
2023-03-21T13:57:41.014Z,19.80
2023-03-21T14:00:17.743Z,12.38
2023-03-21T14:03:18.120Z,20.30
2023-03-21T14:05:50.762Z,20.30
2023-03-21T14:08:31.227Z,16.73
2023-03-21T14:11:10.233Z,20.30
2023-03-21T14:13:50.363Z,14.25
2023-03-21T14:16:20.908Z,16.10
2023-03-21T14:19:04.713Z,15.60
2023-03-21T14:21:34.659Z,18.77
2023-03-21T14:24:13.536Z,24.02
2023-03-21T14:26:45.577Z,19.70
2023-03-21T14:29:26.784Z,19.35
2023-03-21T14:31:56.541Z,18.63
2023-03-21T14:34:29.331Z,17.50
2023-03-21T14:36:59.483Z,20.00
2023-03-21T14:39:30.393Z,17.80
2023-03-21T14:42:02.709Z,19.27
2023-03-21T14:44:56.225Z,16.83
2023-03-21T14:47:28.586Z,13.00
2023-03-21T14:49:57.459Z,13.23
2023-03-21T14:52:33.106Z,12.23
2023-03-21T14:55:02.471Z,15.35
2023-03-21T14:57:32.704Z,19.23
2023-03-21T15:00:13.635Z,18.45
2023-03-21T15:02:43.153Z,15.88
2023-03-21T15:05:31.944Z,17.30
2023-03-21T15:08:17.844Z,20.15
2023-03-21T15:11:06.987Z,18.05
2023-03-21T15:13:55.256Z,16.58
2023-03-21T15:16:23.387Z,17.70
2023-03-21T15:18:51.510Z,20.35
2023-03-21T15:21:27.682Z,21.50
2023-03-21T15:24:01.100Z,20.35
2023-03-21T15:26:34.205Z,19.85
2023-03-21T15:29:02.344Z,20.85
2023-03-21T15:31:39.069Z,19.20
2023-03-21T15:34:06.947Z,19.88
2023-03-21T15:36:37.805Z,20.05
2023-03-21T15:39:08.733Z,20.98
2023-03-21T15:41:36.135Z,20.87
2023-03-21T15:44:09.626Z,19.45
2023-03-21T15:46:42.865Z,19.23
2023-03-21T15:49:16.231Z,18.77
2023-03-21T15:51:46.194Z,20.83
2023-03-21T15:54:28.287Z,19.17
2023-03-21T15:57:09.408Z,19.70
2023-03-21T15:59:41.164Z,19.87
2023-03-21T16:02:17.927Z,19.42
2023-03-21T16:05:29.174Z,18.38
2023-03-21T16:08:26.397Z,19.85
2023-03-21T16:10:53.856Z,20.35
2023-03-21T16:13:21.129Z,21.35
2023-03-21T16:15:51.347Z,20.05
2023-03-21T16:18:19.502Z,20.65
2023-03-21T16:20:49.167Z,19.33
2023-03-21T16:23:17.407Z,19.90
2023-03-21T16:25:45.744Z,21.10
2023-03-21T16:28:16.492Z,20.17
2023-03-21T16:30:44.698Z,19.83
2023-03-21T16:33:13.317Z,18.52
2023-03-21T16:35:41.258Z,19.98
2023-03-21T16:38:12.403Z,20.40
2023-03-21T16:40:41.889Z,18.00
2023-03-21T16:43:10.637Z,19.85
2023-03-21T16:45:38.121Z,19.48
2023-03-21T16:48:05.785Z,20.13
2023-03-21T16:50:38.669Z,19.25
2023-03-21T16:53:06.284Z,21.17
2023-03-21T16:55:35.192Z,21.13
2023-03-21T16:58:02.924Z,21.55
2023-03-21T17:00:31.274Z,21.95
2023-03-21T17:03:08.674Z,22.92
2023-03-21T17:05:36.169Z,21.15
2023-03-21T17:08:04.646Z,21.40
2023-03-21T17:10:33.075Z,22.42
2023-03-21T17:13:00.486Z,21.30
2023-03-21T17:15:27.941Z,20.58
2023-03-21T17:17:55.758Z,20.45
2023-03-21T17:20:41.908Z,21.15
2023-03-21T17:23:13.135Z,20.60
2023-03-21T17:25:40.582Z,19.77
2023-03-21T17:28:07.922Z,19.98
2023-03-21T17:30:39.227Z,19.73
2023-03-21T17:33:06.838Z,19.00
2023-03-21T17:35:34.123Z,18.85
2023-03-21T17:38:01.570Z,20.83
2023-03-21T17:40:31.468Z,20.38
2023-03-21T17:43:01.360Z,17.30
2023-03-21T17:45:28.803Z,19.02
2023-03-21T17:47:56.415Z,21.52
2023-03-21T17:50:31.285Z,19.70
2023-03-21T17:52:58.621Z,19.80
2023-03-21T17:55:26.354Z,20.52
2023-03-21T17:57:53.655Z,21.58
2023-03-21T18:00:23.808Z,21.90
2023-03-21T18:02:51.736Z,23.00
2023-03-21T18:05:21.575Z,24.05
2023-03-21T18:08:10.658Z,22.25
2023-03-21T18:10:39.075Z,22.13
2023-03-21T18:13:09.510Z,23.52
2023-03-21T18:15:38.258Z,23.63
2023-03-21T18:18:05.888Z,21.85
2023-03-21T18:23:21.344Z,23.50
2023-03-21T18:25:53.201Z,23.42
2023-03-21T18:31:07.814Z,24.00
2023-03-21T18:33:40.960Z,24.23
2023-03-21T18:36:13.829Z,25.48
2023-03-21T18:38:42.098Z,23.50
2023-03-21T18:41:10.154Z,25.35
2023-03-21T18:44:02.811Z,25.77
2023-03-21T18:46:25.961Z,26.27
2023-03-21T18:48:53.268Z,24.67
2023-03-21T18:51:21.813Z,26.95
2023-03-21T18:53:49.432Z,24.48
2023-03-21T18:59:05.676Z,27.13
2023-03-21T19:01:33.152Z,30.52
2023-03-21T19:04:23.803Z,27.48
2023-03-21T19:06:50.226Z,28.85
2023-03-21T19:09:18.647Z,28.25
2023-03-21T19:11:46.550Z,27.42
2023-03-21T19:14:15.568Z,29.38
2023-03-21T19:17:18.369Z,27.00
2023-03-21T19:19:31.136Z,27.75
2023-03-21T19:21:58.505Z,29.02
2023-03-21T19:24:28.541Z,27.85
2023-03-21T19:26:56.514Z,26.95
2023-03-21T19:29:24.090Z,27.48
2023-03-21T19:31:52.500Z,26.05
2023-03-21T19:34:20.829Z,26.30
2023-03-21T19:36:52.362Z,27.40
2023-03-21T19:39:24.082Z,26.42
2023-03-21T19:41:55.403Z,25.83
2023-03-21T19:44:32.363Z,24.52
2023-03-21T19:46:59.628Z,27.58
2023-03-21T19:49:48.573Z,25.23
2023-03-21T19:52:14.176Z,24.85
2023-03-21T19:54:41.443Z,24.38
2023-03-21T19:57:09.755Z,24.95
2023-03-21T19:59:37.740Z,25.55
2023-03-21T20:02:31.208Z,24.60
2023-03-21T20:04:52.594Z,25.73
2023-03-21T20:07:19.980Z,24.45
2023-03-21T20:09:52.783Z,23.02
2023-03-21T20:12:21.938Z,24.00
2023-03-21T20:14:56.030Z,23.67
2023-03-21T20:17:31.815Z,22.88
2023-03-21T20:20:00.131Z,25.38
2023-03-21T20:22:53.582Z,25.27
2023-03-21T20:25:15.588Z,23.98
2023-03-21T20:27:43.861Z,24.35
2023-03-21T20:30:14.966Z,24.15
2023-03-21T20:32:45.646Z,23.90
2023-03-21T20:35:24.645Z,24.98
2023-03-21T20:38:01.388Z,26.08
2023-03-21T20:40:28.684Z,24.60
2023-03-21T20:42:56.373Z,25.38
2023-03-21T20:45:23.748Z,26.10
2023-03-21T20:47:51.072Z,27.33
2023-03-21T20:50:22.211Z,29.25
2023-03-21T20:53:04.870Z,28.42
2023-03-21T20:55:34.155Z,28.80
2023-03-21T20:58:02.143Z,28.58
2023-03-21T21:00:29.857Z,29.77
2023-03-21T21:02:58.046Z,29.35
2023-03-21T21:05:30.605Z,29.63
2023-03-21T21:08:00.739Z,27.98
2023-03-21T21:10:28.797Z,28.38
2023-03-21T21:12:58.673Z,28.50
2023-03-21T21:15:26.406Z,28.25
2023-03-21T21:18:06.423Z,29.60
2023-03-21T21:20:35.174Z,29.27
2023-03-21T21:23:02.602Z,28.63
2023-03-21T21:25:32.821Z,27.30
2023-03-21T21:28:01.793Z,28.13
2023-03-21T21:30:29.929Z,30.25
2023-03-21T21:33:00.766Z,30.48
2023-03-21T21:35:28.490Z,31.10
2023-03-21T21:37:56.048Z,30.73
2023-03-21T21:40:29.586Z,29.85
2023-03-21T21:43:03.222Z,27.65
2023-03-21T21:45:30.843Z,28.13
2023-03-21T21:47:58.188Z,29.13
2023-03-21T21:50:25.583Z,27.90
2023-03-21T21:52:54.729Z,28.10
2023-03-21T21:55:22.143Z,29.98
2023-03-21T21:57:53.083Z,29.50
2023-03-21T22:00:21.283Z,28.97
2023-03-21T22:02:48.798Z,28.80
2023-03-21T22:05:19.033Z,27.75
2023-03-21T22:07:47.148Z,29.45
2023-03-21T22:10:15.083Z,29.65
2023-03-21T22:12:42.737Z,30.65
2023-03-21T22:15:13.789Z,28.40
2023-03-21T22:17:41.661Z,29.43
2023-03-21T22:20:12.092Z,28.77
2023-03-21T22:22:39.685Z,28.65
2023-03-21T22:25:09.431Z,28.13
2023-03-21T22:27:37.212Z,29.40
2023-03-21T22:30:07.456Z,28.90
2023-03-21T22:32:37.349Z,31.40
2023-03-21T22:35:05.640Z,30.17
2023-03-21T22:37:37.563Z,28.92
2023-03-21T22:42:39.773Z,29.13
2023-03-21T22:45:14.666Z,29.70
2023-03-21T22:47:42.163Z,29.58
2023-03-21T22:50:12.280Z,28.77
2023-03-21T22:52:39.533Z,29.25
2023-03-21T22:55:09.711Z,28.55
2023-03-21T22:57:37.033Z,29.52
2023-03-21T23:00:13.229Z,29.55
2023-03-21T23:02:44.062Z,29.73
2023-03-21T23:05:11.720Z,28.58
2023-03-21T23:07:39.298Z,28.58
2023-03-21T23:10:08.027Z,28.77
2023-03-21T23:12:36.388Z,28.13
2023-03-21T23:15:04.381Z,27.70
2023-03-21T23:17:33.892Z,27.48
2023-03-21T23:20:02.223Z,28.38
2023-03-21T23:22:33.775Z,28.77
2023-03-21T23:25:01.702Z,27.73
2023-03-21T23:27:31.803Z,28.15
2023-03-21T23:29:59.077Z,27.35
2023-03-21T23:32:26.509Z,27.52
2023-03-21T23:34:56.762Z,28.23
2023-03-21T23:37:25.172Z,28.45
2023-03-21T23:39:57.492Z,28.00
2023-03-21T23:42:25.598Z,29.83
2023-03-21T23:44:52.887Z,27.48
2023-03-21T23:47:20.847Z,27.88
2023-03-21T23:49:50.080Z,28.42
2023-03-21T23:52:17.715Z,27.55
2023-03-21T23:54:45.221Z,28.23
2023-03-21T23:57:12.499Z,28.67
2023-03-21T23:59:42.206Z,27.88
